Time;durP1;ratioP1;P1;durP2;ratioP2;P2;SDS_P1;SDS_P2;PMS_P1;PMS_P2;Temp;Humidity;BMP_temperature;BMP_pressure;BME280_temperature;BME280_humidity;BME280_pressure;Samples;Min_cycle;Max_cycle;Signal;HPM_P1;HPM_P2
2023/03/09 00:02:12;;;;;;;;;12.50;11.00;26.00;32.10;;;;;;109631;1255;46166;-65
2023/03/09 00:04:39;;;;;;;;;12.00;10.50;26.00;32.10;;;;;;109703;1260;55277;-65
2023/03/09 00:07:05;;;;;;;;;14.00;13.00;26.00;32.20;;;;;;109625;1259;53970;-66
2023/03/09 00:09:31;;;;;;;;;10.00;9.00;26.00;32.10;;;;;;109594;1255;50018;-65
2023/03/09 00:11:58;;;;;;;;;12.67;11.67;25.90;32.10;;;;;;109625;1255;49808;-65
2023/03/09 00:14:24;;;;;;;;;10.50;9.50;25.90;32.10;;;;;;109586;1255;46830;-64
2023/03/09 00:16:51;;;;;;;;;11.00;10.00;25.90;32.10;;;;;;109549;1259;55940;-64
2023/03/09 00:19:20;;;;;;;;;11.67;10.67;25.90;32.10;;;;;;109574;1260;54379;-64
2023/03/09 00:21:51;;;;;;;;;12.67;10.67;25.90;32.10;;;;;;109659;1255;48948;-64
2023/03/09 00:24:19;;;;;;;;;11.00;10.00;25.80;32.10;;;;;;109571;1259;50208;-64
2023/03/09 00:26:51;;;;;;;;;11.00;9.00;25.80;32.20;;;;;;109641;1255;46035;-65
2023/03/09 00:29:18;;;;;;;;;15.00;11.50;25.80;32.00;;;;;;109588;1257;55230;-64
2023/03/09 00:31:44;;;;;;;;;12.00;11.00;25.70;32.00;;;;;;109636;1255;53842;-64
2023/03/09 00:34:12;;;;;;;;;15.00;13.00;25.70;32.00;;;;;;109561;1259;50384;-64
2023/03/09 00:36:39;;;;;;;;;13.00;12.00;25.70;32.00;;;;;;109595;1260;49129;-63
2023/03/09 00:39:06;;;;;;;;;9.00;8.00;25.60;32.00;;;;;;109643;1256;45571;-64
2023/03/09 00:41:32;;;;;;;;;14.00;12.00;25.60;32.00;;;;;;109751;1255;55379;-65
2023/03/09 00:44:00;;;;;;;;;14.00;13.00;25.50;32.20;;;;;;109541;1261;54085;-65
2023/03/09 00:46:27;;;;;;;;;11.00;10.00;25.50;32.00;;;;;;109572;1259;49723;-66
2023/03/09 00:48:53;;;;;;;;;;;25.50;32.00;;;;;;109673;1255;49813;-66
2023/03/09 00:51:20;;;;;;;;;15.00;13.00;25.50;32.00;;;;;;109774;1260;46087;-65
2023/03/09 00:53:46;;;;;;;;;12.00;11.00;25.50;32.20;;;;;;109614;1261;55737;-65
2023/03/09 00:56:16;;;;;;;;;12.75;11.75;25.40;32.10;;;;;;109670;1256;54201;-65
2023/03/09 00:58:43;;;;;;;;;14.00;12.00;25.40;32.10;;;;;;109405;1258;49749;-66
2023/03/09 01:01:11;;;;;;;;;12.00;11.00;25.30;32.60;;;;;;109660;1255;49059;-66
2023/03/09 01:03:38;;;;;;;;;11.00;10.00;25.20;32.10;;;;;;109584;1257;46933;-65
2023/03/09 01:06:05;;;;;;;;;11.00;10.00;25.20;32.10;;;;;;109554;1257;55566;-64
2023/03/09 01:08:32;;;;;;;;;12.00;11.00;25.20;32.30;;;;;;109587;1256;54377;-64
2023/03/09 01:10:58;;;;;;;;;12.50;10.50;25.20;31.80;;;;;;109632;1259;49305;-63
2023/03/09 01:13:25;;;;;;;;;16.00;13.00;25.10;32.20;;;;;;109655;1256;49814;-64
2023/03/09 01:15:51;;;;;;;;;13.50;12.00;25.00;32.20;;;;;;109568;1260;46615;-64
2023/03/09 01:18:17;;;;;;;;;12.00;11.00;25.00;32.30;;;;;;109578;1255;56080;-62
2023/03/09 01:20:44;;;;;;;;;11.00;10.00;24.90;32.30;;;;;;109568;1260;54054;-62
2023/03/09 01:23:11;;;;;;;;;12.00;11.00;24.90;32.10;;;;;;109662;1255;49138;-62
2023/03/09 01:25:38;;;;;;;;;15.00;12.00;24.80;32.40;;;;;;109654;1259;48727;-64
2023/03/09 01:28:04;;;;;;;;;11.50;10.50;24.80;32.40;;;;;;109579;1260;45767;-62
2023/03/09 01:30:31;;;;;;;;;13.00;12.00;24.70;32.40;;;;;;109572;1257;56500;-64
2023/03/09 01:32:57;;;;;;;;;12.00;11.00;24.70;32.40;;;;;;109634;1255;53601;-63
2023/03/09 01:35:24;;;;;;;;;14.00;12.00;24.60;32.50;;;;;;109620;1259;49097;-63
2023/03/09 01:37:50;;;;;;;;;12.50;10.50;24.60;32.50;;;;;;109561;1260;49220;-64
2023/03/09 01:40:20;;;;;;;;;11.00;9.50;24.60;32.60;;;;;;109623;1259;45665;-64
2023/03/09 01:43:01;;;;;;;;;11.00;10.00;24.50;32.70;;;;;;109674;1259;55658;-64
2023/03/09 01:45:28;;;;;;;;;12.00;11.00;24.50;32.60;;;;;;109586;1257;53662;-64
2023/03/09 01:47:57;;;;;;;;;14.00;10.00;24.50;32.60;;;;;;109640;1259;49332;-64
2023/03/09 01:50:32;;;;;;;;;12.00;11.00;24.40;32.50;;;;;;109566;1261;50412;-64
2023/03/09 01:53:04;;;;;;;;;11.00;10.00;24.40;32.60;;;;;;109828;1257;45165;-67
2023/03/09 01:55:34;;;;;;;;;14.50;13.50;24.30;32.80;;;;;;109622;1255;55752;-65
2023/03/09 01:58:07;;;;;;;;;10.50;9.50;24.30;32.60;;;;;;109608;1260;53903;-67
2023/03/09 02:00:33;;;;;;;;;14.00;10.00;24.30;32.70;;;;;;109716;1256;49494;-66
2023/03/09 02:03:09;;;;;;;;;12.00;10.00;24.20;32.60;;;;;;109660;1261;50424;-65
2023/03/09 02:05:46;;;;;;;;;12.00;11.00;24.20;32.70;;;;;;109744;1255;46133;-64
2023/03/09 02:08:12;;;;;;;;;12.00;11.00;24.10;32.70;;;;;;109571;1257;56453;-63
2023/03/09 02:10:44;;;;;;;;;11.67;10.00;24.10;32.70;;;;;;109577;1257;54862;-63
2023/03/09 02:13:13;;;;;;;;;12.00;11.00;24.10;32.80;;;;;;109664;1257;50514;-65
2023/03/09 02:15:39;;;;;;;;;12.00;10.50;24.00;32.80;;;;;;109585;1260;49678;-65
2023/03/09 02:18:06;;;;;;;;;15.00;12.00;24.00;32.90;;;;;;109566;1259;45154;-65
2023/03/09 02:20:32;;;;;;;;;12.00;10.00;24.00;32.80;;;;;;109560;1261;56582;-66
2023/03/09 02:23:01;;;;;;;;;15.00;13.00;24.00;32.90;;;;;;109659;1255;53574;-64
2023/03/09 02:25:36;;;;;;;;;15.00;14.00;23.90;33.10;;;;;;109677;1260;49329;-64
2023/03/09 02:28:05;;;;;;;;;13.00;12.00;23.90;33.00;;;;;;109675;1255;49468;-62
2023/03/09 02:30:35;;;;;;;;;15.33;11.67;23.90;32.50;;;;;;109679;1257;46169;-66
2023/03/09 02:33:25;;;;;;;;;16.00;13.00;23.90;33.00;;;;;;109635;1255;55895;-67
2023/03/09 02:35:53;;;;;;;;;13.00;10.00;23.90;33.00;;;;;;109652;1255;53807;-64
2023/03/09 02:38:20;;;;;;;;;12.00;10.00;23.80;32.90;;;;;;109618;1255;49125;-63
2023/03/09 02:40:47;;;;;;;;;12.00;11.00;23.90;33.20;;;;;;109608;1255;49250;-63
2023/03/09 02:43:16;;;;;;;;;14.00;11.50;23.80;32.90;;;;;;109583;1260;45221;-62
2023/03/09 02:45:42;;;;;;;;;13.00;12.00;23.80;33.00;;;;;;109863;1255;55062;-63
2023/03/09 02:48:09;;;;;;;;;12.00;11.00;23.80;33.20;;;;;;109709;1261;54187;-64
2023/03/09 02:50:35;;;;;;;;;13.00;12.00;23.80;33.00;;;;;;109609;1255;49320;-63
2023/03/09 02:53:02;;;;;;;;;12.00;11.00;23.70;33.00;;;;;;109837;1260;50152;-64
2023/03/09 02:55:28;;;;;;;;;11.00;9.50;23.70;33.00;;;;;;109639;1257;45244;-64
2023/03/09 02:57:54;;;;;;;;;15.00;11.00;23.70;33.10;;;;;;109626;1255;56090;-63
2023/03/09 03:00:21;;;;;;;;;12.00;10.00;23.70;33.10;;;;;;109689;1260;54785;-63
2023/03/09 03:02:48;;;;;;;;;12.50;11.00;23.60;33.10;;;;;;109667;1255;50029;-63
2023/03/09 03:05:14;;;;;;;;;12.00;11.00;23.60;33.20;;;;;;109586;1259;49740;-64
2023/03/09 03:07:40;;;;;;;;;12.00;11.00;23.60;33.40;;;;;;109642;1255;45064;-65
2023/03/09 03:10:08;;;;;;;;;14.00;12.00;23.60;33.20;;;;;;109597;1255;56547;-65
2023/03/09 03:12:34;;;;;;;;;13.00;11.00;23.60;33.30;;;;;;109628;1257;54158;-65
2023/03/09 03:15:00;;;;;;;;;11.67;10.00;23.50;33.20;;;;;;109579;1257;49712;-64
2023/03/09 03:17:27;;;;;;;;;10.50;9.50;23.60;33.30;;;;;;109598;1255;49410;-65
2023/03/09 03:19:54;;;;;;;;;11.00;9.50;23.50;33.20;;;;;;109599;1257;46508;-65
2023/03/09 03:22:20;;;;;;;;;13.67;12.67;23.50;33.30;;;;;;109670;1255;55949;-64
2023/03/09 03:24:47;;;;;;;;;13.00;11.00;23.50;33.40;;;;;;109757;1255;54814;-65
2023/03/09 03:27:14;;;;;;;;;12.00;10.50;23.50;33.30;;;;;;109629;1260;49803;-64
2023/03/09 03:29:41;;;;;;;;;13.00;12.00;23.40;33.30;;;;;;109591;1255;49964;-64
2023/03/09 03:32:07;;;;;;;;;14.00;12.00;23.40;33.30;;;;;;109651;1256;45100;-64
2023/03/09 03:34:34;;;;;;;;;13.00;11.00;23.40;33.40;;;;;;109664;1259;56310;-63
2023/03/09 03:37:00;;;;;;;;;13.00;12.00;23.40;33.40;;;;;;109596;1257;53571;-63
2023/03/09 03:39:26;;;;;;;;;15.33;13.00;23.40;33.40;;;;;;109610;1257;49279;-64
2023/03/09 03:41:52;;;;;;;;;10.00;9.00;23.40;33.60;;;;;;109685;1259;49685;-65
2023/03/09 03:44:19;;;;;;;;;11.00;10.00;23.30;33.70;;;;;;109588;1260;46656;-66
2023/03/09 03:46:45;;;;;;;;;14.00;13.00;23.30;33.50;;;;;;109620;1260;56032;-65
2023/03/09 03:49:11;;;;;;;;;11.33;10.00;23.30;33.50;;;;;;109627;1260;54388;-65
2023/03/09 03:51:37;;;;;;;;;13.00;12.00;23.30;33.60;;;;;;109682;1260;50319;-66
2023/03/09 03:54:04;;;;;;;;;14.00;10.50;23.30;33.50;;;;;;109774;1259;49155;-65
2023/03/09 03:56:30;;;;;;;;;11.00;10.00;23.30;33.70;;;;;;109629;1257;46290;-64
2023/03/09 03:58:56;;;;;;;;;13.00;11.00;23.30;33.50;;;;;;109616;1255;55969;-66
2023/03/09 04:01:23;;;;;;;;;11.50;10.50;23.20;33.50;;;;;;109718;1255;53763;-63
2023/03/09 04:03:49;;;;;;;;;12.00;11.00;23.20;33.50;;;;;;109607;1257;49816;-64
2023/03/09 04:06:15;;;;;;;;;12.50;11.00;23.20;33.60;;;;;;109687;1257;49762;-64
2023/03/09 04:08:41;;;;;;;;;12.00;10.00;23.20;33.60;;;;;;109596;1257;46223;-63
2023/03/09 04:11:08;;;;;;;;;12.00;10.00;23.20;33.60;;;;;;109663;1259;55111;-63
2023/03/09 04:13:35;;;;;;;;;13.00;11.00;23.10;33.60;;;;;;109602;1259;53371;-64
2023/03/09 04:16:01;;;;;;;;;13.00;12.00;23.10;33.60;;;;;;109650;1255;49785;-64
2023/03/09 04:18:27;;;;;;;;;12.50;11.00;23.10;33.60;;;;;;109586;1259;48966;-64
2023/03/09 04:20:54;;;;;;;;;13.00;11.00;23.10;33.60;;;;;;109648;1259;46118;-63
2023/03/09 04:23:20;;;;;;;;;11.67;10.67;23.10;33.70;;;;;;109663;1255;56391;-64
2023/03/09 04:25:56;;;;;;;;;11.00;10.00;23.10;33.90;;;;;;109602;1259;54660;-64
2023/03/09 04:28:23;;;;;;;;;13.00;11.50;23.10;33.70;;;;;;109631;1255;49850;-64
2023/03/09 04:30:49;;;;;;;;;13.00;11.00;23.00;34.10;;;;;;109618;1259;50595;-64
2023/03/09 04:33:15;;;;;;;;;14.00;11.00;23.00;33.60;;;;;;109725;1256;46037;-64
2023/03/09 04:35:42;;;;;;;;;14.00;13.00;23.00;33.60;;;;;;109632;1260;55109;-64
2023/03/09 04:38:11;;;;;;;;;13.00;10.00;23.10;33.70;;;;;;109624;1259;53765;-64
2023/03/09 04:40:38;;;;;;;;;14.00;12.00;23.10;33.70;;;;;;109693;1259;49365;-65
2023/03/09 04:43:04;;;;;;;;;11.50;9.50;23.30;33.90;;;;;;109617;1260;50243;-65
2023/03/09 04:45:31;;;;;;;;;12.00;11.00;23.40;33.70;;;;;;109620;1257;46025;-65
2023/03/09 04:47:58;;;;;;;;;14.00;10.50;23.50;33.70;;;;;;109652;1255;55819;-66
2023/03/09 04:50:25;;;;;;;;;12.00;10.00;23.60;33.70;;;;;;109698;1255;53035;-65
2023/03/09 04:52:52;;;;;;;;;12.00;10.00;23.70;33.70;;;;;;109788;1260;49450;-67
2023/03/09 04:55:18;;;;;;;;;11.50;10.00;23.80;33.70;;;;;;109689;1260;50712;-66
2023/03/09 04:57:44;;;;;;;;;11.00;10.00;24.00;33.70;;;;;;109724;1261;46208;-68
2023/03/09 05:00:11;;;;;;;;;11.00;10.00;24.20;33.80;;;;;;109790;1260;55368;-67
2023/03/09 05:02:39;;;;;;;;;11.00;9.00;24.30;33.80;;;;;;109807;1257;53466;-68
2023/03/09 05:05:07;;;;;;;;;11.00;10.00;24.40;34.00;;;;;;109719;1255;49942;-66
2023/03/09 05:07:34;;;;;;;;;10.00;9.00;24.60;33.80;;;;;;109786;1255;49980;-66
2023/03/09 05:10:01;;;;;;;;;11.00;9.00;24.60;33.70;;;;;;109951;1255;45651;-66
2023/03/09 05:12:31;;;;;;;;;11.00;10.00;24.80;33.70;;;;;;109717;1255;56702;-64
2023/03/09 05:14:58;;;;;;;;;11.00;10.00;24.90;33.70;;;;;;109761;1257;53570;-63
2023/03/09 05:17:25;;;;;;;;;14.00;11.00;25.00;33.70;;;;;;109645;1255;49838;-64
2023/03/09 05:19:52;;;;;;;;;14.00;13.00;25.10;33.70;;;;;;109637;1258;49719;-63
2023/03/09 05:22:18;;;;;;;;;10.00;9.00;25.20;33.70;;;;;;109677;1255;45592;-64
2023/03/09 05:24:44;;;;;;;;;13.00;10.50;25.20;33.80;;;;;;109687;1255;55862;-63
2023/03/09 05:27:12;;;;;;;;;11.00;10.00;25.30;33.70;;;;;;109662;1255;54020;-63
2023/03/09 05:29:39;;;;;;;;;9.50;8.50;25.40;33.70;;;;;;109664;1255;48898;-64
2023/03/09 05:32:06;;;;;;;;;10.00;9.00;25.50;33.50;;;;;;109661;1257;49271;-65
2023/03/09 05:34:33;;;;;;;;;11.00;10.00;25.50;33.50;;;;;;109572;1255;45918;-65
2023/03/09 05:37:00;;;;;;;;;11.50;10.00;25.50;33.40;;;;;;109649;1256;56002;-65
2023/03/09 05:39:27;;;;;;;;;10.50;9.50;25.60;33.40;;;;;;109630;1260;53665;-65
2023/03/09 05:41:54;;;;;;;;;9.00;8.00;25.60;33.30;;;;;;109473;1255;49461;-64
2023/03/09 05:44:20;;;;;;;;;12.00;11.00;25.70;33.40;;;;;;109638;1256;49575;-64
2023/03/09 05:46:46;;;;;;;;;11.00;10.00;25.70;33.20;;;;;;109688;1259;45986;-63
2023/03/09 05:49:12;;;;;;;;;10.50;9.00;25.80;33.50;;;;;;109667;1259;55585;-64
2023/03/09 05:51:39;;;;;;;;;11.00;10.00;25.80;33.20;;;;;;109736;1255;54725;-64
2023/03/09 05:54:05;;;;;;;;;12.00;11.00;25.80;33.20;;;;;;109628;1259;49454;-63
2023/03/09 05:56:31;;;;;;;;;10.00;9.00;25.80;33.40;;;;;;109699;1255;49184;-61
2023/03/09 05:58:57;;;;;;;;;11.00;9.50;25.80;33.10;;;;;;109573;1260;45807;-62
2023/03/09 06:01:26;;;;;;;;;10.50;9.50;25.80;33.10;;;;;;109509;1255;56143;-62
2023/03/09 06:03:53;;;;;;;;;13.00;12.00;25.80;33.30;;;;;;109684;1255;54179;-62
2023/03/09 06:06:19;;;;;;;;;11.00;10.00;25.80;33.10;;;;;;109697;1255;49033;-63
2023/03/09 06:08:45;;;;;;;;;14.00;11.00;25.90;33.10;;;;;;109648;1261;49356;-62
2023/03/09 06:11:12;;;;;;;;;11.00;10.00;25.80;33.30;;;;;;109430;1255;46244;-62
2023/03/09 06:13:38;;;;;;;;;13.00;12.00;25.80;33.00;;;;;;109548;1260;55527;-62
2023/03/09 06:16:06;;;;;;;;;12.33;11.00;25.80;33.20;;;;;;109698;1255;55298;-63
2023/03/09 06:18:33;;;;;;;;;9.00;8.00;25.80;33.00;;;;;;109588;1255;49197;-63
2023/03/09 06:21:04;;;;;;;;;11.00;10.00;25.80;33.00;;;;;;109744;1259;49814;-62
2023/03/09 06:23:32;;;;;;;;;13.00;10.00;25.80;33.00;;;;;;109605;1255;46842;-63
2023/03/09 06:25:58;;;;;;;;;11.00;10.00;25.80;33.00;;;;;;109722;1255;55904;-61
2023/03/09 06:28:25;;;;;;;;;12.00;11.00;25.80;33.20;;;;;;109596;1259;54607;-62
2023/03/09 06:30:51;;;;;;;;;9.50;8.50;25.80;33.00;;;;;;109721;1255;49365;-62
2023/03/09 06:33:17;;;;;;;;;11.00;10.00;25.70;33.10;;;;;;109920;1255;50128;-63
2023/03/09 06:35:43;;;;;;;;;9.50;8.50;25.70;32.90;;;;;;109681;1255;45648;-63
2023/03/09 06:38:10;;;;;;;;;11.00;10.00;25.70;32.90;;;;;;109595;1258;55576;-62
2023/03/09 06:40:36;;;;;;;;;12.00;10.00;25.70;33.00;;;;;;109573;1255;53934;-63
2023/03/09 06:43:02;;;;;;;;;10.50;9.50;25.70;33.10;;;;;;109513;1256;49840;-62
2023/03/09 06:45:28;;;;;;;;;11.00;10.00;25.60;32.90;;;;;;109624;1260;49440;-62
2023/03/09 06:47:56;;;;;;;;;11.00;10.00;25.60;32.90;;;;;;109700;1255;45207;-63
2023/03/09 06:50:24;;;;;;;;;13.00;12.00;25.60;33.10;;;;;;109941;1260;56327;-62
2023/03/09 06:52:51;;;;;;;;;9.00;8.00;25.60;33.00;;;;;;109709;1260;54867;-63
2023/03/09 06:55:18;;;;;;;;;11.50;10.50;25.60;33.00;;;;;;109635;1255;49382;-62
2023/03/09 06:57:44;;;;;;;;;10.50;9.50;25.60;32.90;;;;;;109622;1255;49476;-63
2023/03/09 07:00:12;;;;;;;;;10.00;9.00;25.60;33.10;;;;;;109648;1257;45662;-63
2023/03/09 07:02:39;;;;;;;;;10.00;9.00;25.50;32.90;;;;;;109614;1255;56531;-63
2023/03/09 07:05:07;;;;;;;;;11.00;9.00;25.50;32.90;;;;;;109611;1255;53824;-64
2023/03/09 07:07:33;;;;;;;;;11.00;9.00;25.50;32.90;;;;;;109521;1259;156455;-61
2023/03/09 07:09:59;;;;;;;;;10.00;8.67;25.50;32.90;;;;;;109751;1258;50364;-63
2023/03/09 07:12:25;;;;;;;;;12.00;11.00;25.50;32.90;;;;;;109452;1259;45610;-62
2023/03/09 07:14:52;;;;;;;;;9.00;8.00;25.40;32.90;;;;;;109598;1260;55878;-63
2023/03/09 07:17:18;;;;;;;;;12.50;11.50;25.40;33.40;;;;;;109608;1260;54567;-63
2023/03/09 07:19:46;;;;;;;;;11.00;10.00;25.40;32.80;;;;;;109735;1255;49645;-64
2023/03/09 07:22:12;;;;;;;;;10.50;9.50;25.30;33.10;;;;;;109607;1259;49803;-62
2023/03/09 07:24:38;;;;;;;;;;;25.30;32.90;;;;;;109753;1259;45647;-63
2023/03/09 07:27:07;;;;;;;;;11.00;10.00;25.30;32.80;;;;;;109687;1255;56148;-63
2023/03/09 07:29:33;;;;;;;;;12.00;11.00;25.30;33.40;;;;;;109664;1260;54242;-63
2023/03/09 07:32:03;;;;;;;;;10.50;9.50;25.20;32.90;;;;;;109492;1255;49216;-63
2023/03/09 07:34:32;;;;;;;;;11.50;9.00;25.20;32.90;;;;;;109598;1255;49689;-63
2023/03/09 07:36:59;;;;;;;;;12.00;10.00;25.30;32.90;;;;;;109573;1255;46738;-63
2023/03/09 07:39:26;;;;;;;;;10.50;9.50;25.30;32.80;;;;;;109591;1260;55976;-63
2023/03/09 07:41:52;;;;;;;;;12.00;11.00;25.30;33.00;;;;;;109641;1255;54729;-63
2023/03/09 07:44:18;;;;;;;;;12.00;9.00;25.30;32.90;;;;;;109690;1255;50479;-63
2023/03/09 07:46:45;;;;;;;;;11.67;9.67;25.30;32.90;;;;;;109560;1259;50206;-63
2023/03/09 07:49:11;;;;;;;;;12.00;11.00;25.30;33.10;;;;;;109677;1260;46040;-64
2023/03/09 07:51:37;;;;;;;;;10.00;9.50;25.20;32.80;;;;;;109421;1255;56594;-62
2023/03/09 07:54:05;;;;;;;;;9.00;8.00;25.20;32.90;;;;;;109582;1260;53963;-62
2023/03/09 07:56:32;;;;;;;;;10.00;9.00;25.20;32.90;;;;;;109795;1255;49379;-62
2023/03/09 07:58:58;;;;;;;;;11.00;10.00;25.20;32.90;;;;;;109945;1255;49711;-63
2023/03/09 08:01:25;;;;;;;;;12.50;9.50;25.20;32.90;;;;;;109713;1255;45781;-65
2023/03/09 08:03:51;;;;;;;;;9.00;7.50;25.10;32.50;;;;;;109770;1255;55935;-61
2023/03/09 08:06:19;;;;;;;;;10.00;9.00;25.10;32.90;;;;;;109623;1255;54188;-62
2023/03/09 08:08:46;;;;;;;;;11.00;8.67;25.00;32.90;;;;;;109637;1255;49402;-64
2023/03/09 08:11:13;;;;;;;;;14.50;9.00;25.00;32.90;;;;;;109647;1255;49649;-62
2023/03/09 08:13:39;;;;;;;;;12.00;11.00;25.00;33.00;;;;;;109597;1255;45181;-63
2023/03/09 08:16:08;;;;;;;;;9.00;8.00;25.00;33.00;;;;;;109563;1255;55312;-64
2023/03/09 08:18:35;;;;;;;;;12.00;10.00;24.90;33.00;;;;;;109628;1261;53995;-65
2023/03/09 08:21:11;;;;;;;;;10.50;9.00;24.90;33.00;;;;;;109610;1255;49042;-63
2023/03/09 08:23:39;;;;;;;;;9.00;8.00;24.90;33.00;;;;;;109815;1260;49008;-65
2023/03/09 08:26:08;;;;;;;;;10.00;9.00;24.90;33.20;;;;;;109814;1255;45514;-65
2023/03/09 08:28:34;;;;;;;;;10.00;9.00;24.90;33.10;;;;;;109551;1260;55681;-66
2023/03/09 08:31:00;;;;;;;;;11.67;10.67;24.80;33.00;;;;;;109607;1257;53982;-63
2023/03/09 08:33:27;;;;;;;;;10.00;9.00;24.80;33.00;;;;;;109708;1260;49177;-63
2023/03/09 08:35:53;;;;;;;;;10.00;9.00;24.80;33.10;;;;;;109621;1255;50170;-63
2023/03/09 08:38:20;;;;;;;;;11.50;9.00;24.70;33.00;;;;;;109553;1259;45875;-63
2023/03/09 08:40:47;;;;;;;;;10.00;9.00;24.70;33.10;;;;;;109837;1257;56593;-64
2023/03/09 08:43:14;;;;;;;;;13.50;11.00;24.70;33.10;;;;;;109755;1257;54383;-73
2023/03/09 08:45:40;;;;;;;;;10.00;9.00;24.70;33.20;;;;;;109960;1255;49293;-63
2023/03/09 08:48:06;;;;;;;;;9.00;8.00;24.60;33.30;;;;;;109689;1255;50341;-63
2023/03/09 08:50:33;;;;;;;;;9.00;8.00;24.60;33.10;;;;;;109606;1260;46508;-63
2023/03/09 08:52:59;;;;;;;;;11.00;10.00;24.60;33.20;;;;;;109678;1259;55423;-63
2023/03/09 08:55:25;;;;;;;;;10.00;9.00;24.60;33.30;;;;;;109706;1255;54079;-62
2023/03/09 08:57:52;;;;;;;;;12.00;11.00;24.60;33.30;;;;;;109624;1255;50385;-63
2023/03/09 09:00:19;;;;;;;;;10.00;9.00;24.60;33.30;;;;;;109574;1255;49824;-64
2023/03/09 09:02:45;;;;;;;;;10.00;9.00;24.60;33.30;;;;;;109647;1255;45462;-63
2023/03/09 09:05:11;;;;;;;;;11.00;9.00;24.60;33.60;;;;;;109585;1255;56723;-65
2023/03/09 09:07:38;;;;;;;;;10.00;8.75;24.60;33.40;;;;;;109593;1255;54133;-64
2023/03/09 09:10:05;;;;;;;;;12.00;10.00;24.60;33.40;;;;;;109581;1257;49919;-67
2023/03/09 09:12:36;;;;;;;;;11.50;9.50;24.60;33.50;;;;;;109704;1255;50314;-66
2023/03/09 09:15:03;;;;;;;;;11.00;10.00;24.60;33.50;;;;;;109567;1255;45701;-66
2023/03/09 09:17:29;;;;;;;;;10.00;9.00;24.60;33.40;;;;;;109596;1258;56024;-66
2023/03/09 09:19:55;;;;;;;;;10.00;9.00;24.60;34.00;;;;;;109736;1259;54901;-65
2023/03/09 09:22:22;;;;;;;;;;;24.60;33.50;;;;;;109647;1255;49848;-65
2023/03/09 09:24:49;;;;;;;;;10.50;8.50;24.60;33.50;;;;;;109625;1259;48342;-65
2023/03/09 09:27:15;;;;;;;;;11.00;11.00;24.50;33.50;;;;;;109623;1255;45560;-65
2023/03/09 09:29:41;;;;;;;;;9.00;8.00;24.50;33.70;;;;;;109644;1255;55517;-66
2023/03/09 09:32:09;;;;;;;;;9.00;8.00;24.50;33.60;;;;;;109606;1257;53555;-66
2023/03/09 09:34:35;;;;;;;;;11.50;9.00;24.50;33.60;;;;;;109645;1255;48933;-66
2023/03/09 09:37:03;;;;;;;;;11.00;10.00;24.50;33.60;;;;;;109523;1257;49554;-66
2023/03/09 09:39:31;;;;;;;;;10.00;9.00;24.50;33.80;;;;;;109663;1255;46637;-66
2023/03/09 09:42:04;;;;;;;;;11.00;10.00;24.40;33.50;;;;;;109774;1255;55082;-66
2023/03/09 09:44:34;;;;;;;;;11.00;10.00;24.40;33.10;;;;;;109676;1260;53829;-66
2023/03/09 09:47:03;;;;;;;;;11.00;10.00;24.40;33.60;;;;;;109678;1262;49239;-66
2023/03/09 09:49:31;;;;;;;;;12.00;11.00;24.40;33.60;;;;;;109622;1257;49791;-66
2023/03/09 09:52:09;;;;;;;;;8.00;8.00;24.40;33.60;;;;;;109453;1255;45630;-66
2023/03/09 09:54:51;;;;;;;;;13.00;9.00;24.40;33.60;;;;;;109579;1259;56256;-65
2023/03/09 09:57:39;;;;;;;;;9.50;8.50;24.40;33.70;;;;;;109551;1259;54608;-65
2023/03/09 10:00:13;;;;;;;;;11.00;10.00;24.40;33.60;;;;;;109673;1259;49566;-65
2023/03/09 10:03:10;;;;;;;;;10.00;9.00;24.40;33.60;;;;;;109522;1255;49046;-65
2023/03/09 10:05:52;;;;;;;;;10.67;9.67;24.40;33.70;;;;;;109643;1261;45423;-65
2023/03/09 10:08:29;;;;;;;;;10.00;9.00;24.40;33.60;;;;;;109656;1260;56284;-66
2023/03/09 10:11:03;;;;;;;;;9.50;8.50;24.40;33.60;;;;;;109623;1255;54042;-64
2023/03/09 10:13:38;;;;;;;;;10.50;8.50;24.40;33.60;;;;;;109590;1260;50160;-66
2023/03/09 10:16:13;;;;;;;;;11.00;10.00;24.40;33.60;;;;;;109737;1255;49839;-65
2023/03/09 10:18:45;;;;;;;;;10.00;9.00;24.40;33.60;;;;;;109762;1255;46182;-64
2023/03/09 10:21:23;;;;;;;;;9.50;8.00;24.40;33.70;;;;;;109463;1257;55481;-64
2023/03/09 10:23:50;;;;;;;;;9.00;8.00;24.40;33.80;;;;;;109742;1259;55328;-65
2023/03/09 10:26:42;;;;;;;;;9.67;8.67;24.40;33.70;;;;;;109744;1255;48621;-65
2023/03/09 10:29:19;;;;;;;;;15.00;11.00;24.40;33.80;;;;;;109645;1259;49293;-66
2023/03/09 10:31:56;;;;;;;;;14.00;13.00;24.40;35.90;;;;;;111388;1261;45688;-68
2023/03/09 10:34:24;;;;;;;;;20.00;15.00;24.50;37.50;;;;;;111079;1259;55960;-63
2023/03/09 10:36:54;;;;;;;;;18.00;15.50;24.70;37.90;;;;;;109677;1261;53587;-63
2023/03/09 10:39:21;;;;;;;;;19.00;17.00;24.90;37.70;;;;;;109740;1261;49663;-65
2023/03/09 10:41:47;;;;;;;;;18.50;13.50;24.90;38.50;;;;;;109561;1257;49778;-65
2023/03/09 10:44:15;;;;;;;;;17.00;14.00;24.90;38.90;;;;;;109636;1257;46021;-64
2023/03/09 10:46:56;;;;;;;;;20.00;14.50;24.90;38.90;;;;;;109678;1260;55370;-65
2023/03/09 10:49:22;;;;;;;;;17.00;13.00;24.90;39.30;;;;;;109663;1257;54273;-65
2023/03/09 10:52:06;;;;;;;;;18.00;13.00;24.90;39.30;;;;;;109754;1259;49439;-66
2023/03/09 10:54:37;;;;;;;;;14.67;13.67;24.90;39.20;;;;;;109595;1255;49768;-67
2023/03/09 10:57:21;;;;;;;;;24.00;15.50;24.90;39.20;;;;;;109577;1260;45857;-64
2023/03/09 10:59:58;;;;;;;;;24.50;15.00;25.00;39.30;;;;;;109602;1255;56402;-65
2023/03/09 11:02:35;;;;;;;;;13.50;12.50;25.00;39.30;;;;;;109650;1258;54542;-64
2023/03/09 11:05:20;;;;;;;;;24.00;14.00;25.10;39.60;;;;;;109718;1260;48945;-65
2023/03/09 11:07:52;;;;;;;;;16.00;13.00;25.10;39.40;;;;;;109593;1259;49000;-65
2023/03/09 11:10:31;;;;;;;;;15.50;14.50;25.20;39.50;;;;;;109675;1259;45208;-66
2023/03/09 11:12:58;;;;;;;;;18.00;14.00;25.20;39.40;;;;;;109835;1257;55572;-65
2023/03/09 11:15:29;;;;;;;;;15.00;14.00;25.20;39.80;;;;;;109788;1259;54547;-63
2023/03/09 11:17:57;;;;;;;;;19.00;18.00;25.30;39.70;;;;;;109540;1261;50330;-62
2023/03/09 11:20:43;;;;;;;;;15.00;12.00;25.30;39.80;;;;;;109805;1260;50175;-62
2023/03/09 11:23:36;;;;;;;;;19.50;15.00;25.30;39.70;;;;;;109738;1258;46701;-62
2023/03/09 11:26:05;;;;;;;;;15.33;13.67;25.30;39.60;;;;;;109564;1261;55841;-61
2023/03/09 11:28:45;;;;;;;;;16.00;12.50;25.30;39.40;;;;;;109552;1257;53785;-65
2023/03/09 11:31:17;;;;;;;;;16.00;15.00;25.30;39.20;;;;;;109750;1260;50158;-62
2023/03/09 11:33:46;;;;;;;;;17.25;15.50;25.30;39.10;;;;;;109642;1255;50336;-61
2023/03/09 11:36:19;;;;;;;;;18.00;13.00;25.30;38.90;;;;;;109580;1259;45701;-62
2023/03/09 11:38:46;;;;;;;;;16.00;14.00;25.30;39.00;;;;;;109648;1255;55511;-62
2023/03/09 11:41:22;;;;;;;;;15.00;12.50;25.30;38.90;;;;;;109771;1259;54287;-62
2023/03/09 11:43:53;;;;;;;;;14.00;13.00;25.30;38.60;;;;;;109609;1260;49105;-62
2023/03/09 11:46:20;;;;;;;;;16.00;13.00;25.30;38.70;;;;;;109670;1255;48797;-61
2023/03/09 11:48:50;;;;;;;;;17.50;15.50;25.30;38.40;;;;;;109560;1260;45993;-61
2023/03/09 11:51:27;;;;;;;;;14.00;13.00;25.40;38.40;;;;;;109453;1261;56351;-62
2023/03/09 11:54:14;;;;;;;;;18.00;15.00;25.30;38.20;;;;;;109535;1257;54837;-62
2023/03/09 11:56:44;;;;;;;;;17.00;14.00;25.30;38.20;;;;;;109552;1260;49909;-61
2023/03/09 11:59:35;;;;;;;;;13.00;12.00;25.30;38.40;;;;;;109657;1260;49381;-62
2023/03/09 12:02:31;;;;;;;;;20.00;17.00;25.30;38.10;;;;;;109788;1259;46410;-62
2023/03/09 12:04:58;;;;;;;;;15.00;13.00;25.30;38.10;;;;;;109622;1259;55874;-62
2023/03/09 12:07:31;;;;;;;;;17.00;14.00;25.30;38.00;;;;;;109604;1257;54187;-62
2023/03/09 12:10:04;;;;;;;;;17.50;15.00;25.30;37.90;;;;;;109591;1259;49970;-61
2023/03/09 12:12:59;;;;;;;;;18.50;13.50;25.30;37.90;;;;;;109666;1255;50266;-62
2023/03/09 12:15:37;;;;;;;;;19.00;13.50;25.30;37.90;;;;;;109709;1257;46548;-62
2023/03/09 12:18:25;;;;;;;;;18.00;13.50;25.30;37.80;;;;;;109614;1259;55579;-61
2023/03/09 12:20:54;;;;;;;;;15.50;12.50;25.30;37.90;;;;;;109604;1260;54404;-61
2023/03/09 12:23:35;;;;;;;;;16.50;14.50;25.20;37.70;;;;;;109629;1255;50867;-61
2023/03/09 12:26:03;;;;;;;;;13.00;11.00;25.20;37.70;;;;;;109619;1255;49542;-61
2023/03/09 12:28:30;;;;;;;;;18.00;15.00;25.20;37.70;;;;;;109575;1255;45753;-62
2023/03/09 12:30:57;;;;;;;;;16.00;15.00;25.20;37.70;;;;;;109608;1255;55301;-61